createdAt,value
2019-04-29T00:02:36.876Z,97933.13
2019-04-29T00:05:10.796Z,97928.56
2019-04-29T00:07:44.622Z,97926.39
2019-04-29T00:10:20.627Z,97929.91
2019-04-29T00:12:54.265Z,97927.73
2019-04-29T00:15:41.909Z,97929.61
2019-04-29T00:18:24.165Z,97930.43
2019-04-29T00:20:57.989Z,97925.56
2019-04-29T00:23:32.335Z,97930.95
2019-04-29T00:26:06.128Z,97930.43
2019-04-29T00:28:39.893Z,97924.22
2019-04-29T00:31:13.849Z,97919.86
2019-04-29T00:33:47.541Z,97917.69
2019-04-29T00:36:23.013Z,97918.30
2019-04-29T00:39:14.260Z,97918.00
2019-04-29T00:42:21.826Z,97913.43
2019-04-29T00:44:55.759Z,97914.26
2019-04-29T00:47:30.453Z,97916.12
2019-04-29T00:50:04.551Z,97916.12
2019-04-29T00:52:38.243Z,97923.91
2019-04-29T00:55:15.171Z,97922.04
2019-04-29T00:57:49.009Z,97916.12
2019-04-29T01:00:29.701Z,97923.39
2019-04-29T01:03:03.541Z,97911.26
2019-04-29T01:05:38.219Z,97913.95
2019-04-29T01:08:12.211Z,97913.13
2019-04-29T01:10:45.900Z,97906.39
2019-04-29T01:13:19.663Z,97909.09
2019-04-29T01:15:53.379Z,97902.87
2019-04-29T01:18:27.285Z,97901.00
2019-04-29T01:21:01.096Z,97897.48
2019-04-29T01:23:34.808Z,97899.44
2019-04-29T01:26:30.423Z,97894.27
2019-04-29T01:29:05.995Z,97896.95
2019-04-29T01:31:39.807Z,97893.44
2019-04-29T01:34:21.456Z,97890.73
2019-04-29T01:36:55.221Z,97884.00
2019-04-29T01:39:40.303Z,97887.71
2019-04-29T01:42:21.481Z,97890.22
2019-04-29T01:44:55.193Z,97889.39
2019-04-29T01:47:28.934Z,97883.14
2019-04-29T01:50:02.911Z,97888.05
2019-04-29T01:52:36.586Z,97882.66
2019-04-29T01:55:10.434Z,97878.61
2019-04-29T01:57:44.167Z,97880.97
2019-04-29T02:00:17.869Z,97883.14
2019-04-29T02:02:52.075Z,97877.45
2019-04-29T02:05:25.813Z,97878.28
2019-04-29T02:07:59.677Z,97878.28
2019-04-29T02:10:34.651Z,97876.10
2019-04-29T02:13:08.283Z,97872.06
2019-04-29T02:15:41.974Z,97869.36
2019-04-29T02:18:15.623Z,97864.80
2019-04-29T02:20:49.301Z,97867.49
2019-04-29T02:23:29.261Z,97861.28
2019-04-29T02:26:02.932Z,97858.58
2019-04-29T02:28:36.650Z,97866.67
2019-04-29T02:31:27.587Z,97865.63
2019-04-29T02:34:01.404Z,97862.62
2019-04-29T02:36:35.108Z,97862.10
2019-04-29T02:39:26.865Z,97861.28
2019-04-29T02:42:22.257Z,97855.89
2019-04-29T02:44:58.021Z,97863.97
2019-04-29T02:47:31.888Z,97856.41
2019-04-29T02:50:05.885Z,97861.80
2019-04-29T02:52:39.693Z,97860.97
2019-04-29T02:55:16.197Z,97857.75
2019-04-29T02:58:13.048Z,97853.72
2019-04-29T03:01:05.503Z,97847.98
2019-04-29T03:04:00.859Z,97847.50
2019-04-29T03:06:34.579Z,97849.15
2019-04-29T03:09:09.124Z,97846.16
2019-04-29T03:11:43.283Z,97851.02
2019-04-29T03:14:16.991Z,97838.56
2019-04-29T03:16:50.940Z,97838.56
2019-04-29T03:19:29.858Z,97840.42
2019-04-29T03:22:05.112Z,97839.91
2019-04-29T03:24:38.821Z,97833.16
2019-04-29T03:27:12.807Z,97837.73
2019-04-29T03:29:46.550Z,97835.03
2019-04-29T03:32:20.349Z,97843.45
2019-04-29T03:34:53.960Z,97834.21
2019-04-29T03:37:27.745Z,97834.21
2019-04-29T03:40:01.780Z,97830.99
2019-04-29T03:42:35.398Z,97830.17
2019-04-29T03:45:09.126Z,97826.13
2019-04-29T03:47:43.085Z,97825.61
2019-04-29T03:50:16.834Z,97823.43
2019-04-29T03:52:50.503Z,97807.45
2019-04-29T03:55:38.328Z,97820.73
2019-04-29T03:57:59.678Z,97820.73
2019-04-29T04:00:33.662Z,97816.69
2019-04-29T04:03:30.761Z,97810.78
2019-04-29T04:06:13.297Z,97812.65
2019-04-29T04:09:04.717Z,97813.70
2019-04-29T04:11:26.208Z,97810.48
2019-04-29T04:14:00.033Z,97799.36
2019-04-29T04:16:51.523Z,97812.84
2019-04-29T04:19:26.910Z,97818.23
2019-04-29T04:22:00.735Z,97807.97
2019-04-29T04:24:34.543Z,97816.39
2019-04-29T04:27:08.351Z,97819.09
2019-04-29T04:29:42.532Z,97828.00
2019-04-29T04:32:16.341Z,97828.19
2019-04-29T04:34:50.064Z,97830.88
2019-04-29T04:37:23.820Z,97825.48
2019-04-29T04:39:57.534Z,97837.09
2019-04-29T04:42:31.289Z,97834.92
2019-04-29T04:45:05.348Z,97832.22
2019-04-29T04:47:39.123Z,97843.00
2019-04-29T04:50:12.849Z,97841.66
2019-04-29T04:52:46.685Z,97854.12
2019-04-29T04:55:22.023Z,97847.05
2019-04-29T04:57:55.780Z,97834.92
2019-04-29T05:00:31.314Z,97849.75
2019-04-29T05:03:05.059Z,97848.39
2019-04-29T05:05:38.765Z,97845.17
2019-04-29T05:08:12.514Z,97838.66
2019-04-29T05:10:47.354Z,97838.14
2019-04-29T05:13:28.146Z,97839.48
2019-04-29T05:15:56.587Z,97838.66
2019-04-29T05:18:30.385Z,97843.00
2019-04-29T05:21:04.107Z,97842.48
2019-04-29T05:23:37.839Z,97836.80
2019-04-29T05:26:12.141Z,97840.83
2019-04-29T05:28:46.145Z,97840.31
2019-04-29T05:31:19.941Z,97840.53
2019-04-29T05:33:53.588Z,97838.66
2019-04-29T05:36:52.221Z,97835.14
2019-04-29T05:39:32.897Z,97842.70
2019-04-29T05:42:15.841Z,97843.23
2019-04-29T05:44:49.227Z,97838.66
2019-04-29T05:47:36.143Z,97838.66
2019-04-29T05:50:26.446Z,97842.18
2019-04-29T05:53:16.382Z,97849.44
2019-04-29T05:55:52.577Z,97855.66
2019-04-29T05:58:26.030Z,97848.39
2019-04-29T06:01:07.250Z,97860.52
2019-04-29T06:03:44.049Z,97846.53
2019-04-29T06:06:17.121Z,97847.69
2019-04-29T06:08:50.932Z,97844.36
2019-04-29T06:11:25.482Z,97838.37
2019-04-29T06:13:59.281Z,97844.59
2019-04-29T06:16:33.080Z,97842.72
2019-04-29T06:19:06.906Z,97839.83
2019-04-29T06:21:40.673Z,97839.83
2019-04-29T06:24:15.439Z,97842.83
2019-04-29T06:26:49.278Z,97842.12
2019-04-29T06:29:23.351Z,97848.03
2019-04-29T06:31:57.896Z,97845.86
2019-04-29T06:34:35.501Z,97846.88
2019-04-29T06:37:07.322Z,97847.70
2019-04-29T06:39:41.220Z,97845.34
2019-04-29T06:42:19.558Z,97851.67
2019-04-29T06:44:52.159Z,97855.59
2019-04-29T06:47:26.210Z,97865.86
2019-04-29T06:49:59.917Z,97861.28
2019-04-29T06:52:33.644Z,97867.97
2019-04-29T06:55:07.289Z,97863.27
2019-04-29T06:57:41.737Z,97860.27
2019-04-29T07:00:17.568Z,97869.89
2019-04-29T07:02:51.097Z,97870.11
2019-04-29T07:05:24.904Z,97863.56
2019-04-29T07:07:58.702Z,97873.81
2019-04-29T07:10:32.587Z,97873.81
2019-04-29T07:13:06.328Z,97867.60
2019-04-29T07:15:43.401Z,97865.31
2019-04-29T07:18:15.515Z,97868.64
2019-04-29T07:20:49.286Z,97869.35
2019-04-29T07:23:22.982Z,97867.30
2019-04-29T07:25:57.128Z,97866.67
2019-04-29T07:28:30.934Z,97866.66
2019-04-29T07:31:04.684Z,97864.67
2019-04-29T07:33:38.453Z,97864.15
2019-04-29T07:36:14.055Z,97866.36
2019-04-29T07:38:51.677Z,97861.58
2019-04-29T07:41:23.873Z,97868.24
2019-04-29T07:43:57.550Z,97871.22
2019-04-29T07:46:55.514Z,97870.06
2019-04-29T07:49:17.251Z,97869.47
2019-04-29T07:51:49.515Z,97868.77
2019-04-29T07:54:23.261Z,97872.23
2019-04-29T07:56:57.756Z,97869.88
2019-04-29T07:59:33.743Z,97870.58
2019-04-29T08:02:07.035Z,97865.31
2019-04-29T08:04:40.894Z,97872.75
2019-04-29T08:07:14.699Z,97868.00
2019-04-29T08:09:49.640Z,97864.37
2019-04-29T08:12:23.853Z,97861.03
2019-04-29T08:14:59.969Z,97866.23
2019-04-29T08:17:33.397Z,97860.97
2019-04-29T08:20:07.213Z,97858.98
2019-04-29T08:22:40.949Z,97858.05
2019-04-29T08:25:15.857Z,97859.28
2019-04-29T08:27:49.682Z,97862.62
2019-04-29T08:30:23.469Z,97867.47
2019-04-29T08:32:57.091Z,97864.12
2019-04-29T08:35:32.802Z,97862.90
2019-04-29T08:38:06.295Z,97860.39
2019-04-29T08:40:40.038Z,97866.00
2019-04-29T08:43:32.599Z,97865.48
2019-04-29T08:46:10.682Z,97867.47
2019-04-29T08:48:45.989Z,97869.23
2019-04-29T08:51:19.899Z,97860.39
2019-04-29T08:53:53.618Z,97861.34
2019-04-29T08:56:27.497Z,97867.58
2019-04-29T08:59:02.474Z,97865.78
2019-04-29T09:01:36.286Z,97870.67
2019-04-29T09:04:11.075Z,97864.77
2019-04-29T09:06:45.963Z,97876.48
2019-04-29T09:09:28.462Z,97869.23
2019-04-29T09:11:55.205Z,97860.16
2019-04-29T09:14:28.939Z,97868.07
2019-04-29T09:17:06.114Z,97873.36
2019-04-29T09:19:39.493Z,97872.47
2019-04-29T09:22:15.147Z,97874.64
2019-04-29T09:25:06.489Z,97874.94
2019-04-29T09:27:45.007Z,97872.25
2019-04-29T09:30:17.807Z,97875.80
2019-04-29T09:32:51.788Z,97874.45
2019-04-29T09:35:28.529Z,97877.33
2019-04-29T09:38:01.113Z,97878.49
2019-04-29T09:40:40.228Z,97872.25
2019-04-29T09:43:44.899Z,97872.58
2019-04-29T09:46:23.740Z,97869.89
2019-04-29T09:48:58.967Z,97865.84
2019-04-29T09:51:32.909Z,97865.84
2019-04-29T09:54:09.646Z,97856.08
2019-04-29T09:56:42.742Z,97865.02
2019-04-29T09:59:24.712Z,97865.73
2019-04-29T10:02:26.476Z,97856.64
2019-04-29T10:05:16.208Z,97859.34
2019-04-29T10:07:50.151Z,97855.48
2019-04-29T10:10:23.839Z,97854.35
2019-04-29T10:12:57.521Z,97850.31
2019-04-29T10:15:44.928Z,97853.49
2019-04-29T10:18:31.775Z,97849.97
2019-04-29T10:21:08.579Z,97840.02
2019-04-29T10:23:42.808Z,97841.89
2019-04-29T10:26:16.689Z,97843.23
2019-04-29T10:29:02.118Z,97840.02
2019-04-29T10:31:36.097Z,97845.11
2019-04-29T10:34:09.917Z,97847.28
2019-04-29T10:36:43.836Z,97848.11
2019-04-29T10:39:32.873Z,97847.28
2019-04-29T10:42:07.749Z,97848.11
2019-04-29T10:44:55.494Z,97841.59
2019-04-29T10:48:02.930Z,97842.41
2019-04-29T10:50:40.102Z,97845.41
2019-04-29T10:53:15.578Z,97843.45
2019-04-29T10:55:49.474Z,97848.55
2019-04-29T10:58:30.162Z,97858.71
2019-04-29T11:02:49.336Z,97850.73
2019-04-29T11:05:44.529Z,97845.99
2019-04-29T11:08:38.166Z,97847.80
2019-04-29T11:11:23.031Z,97849.97
2019-04-29T11:13:50.652Z,97850.50
2019-04-29T11:16:27.626Z,97847.09
2019-04-29T11:19:03.068Z,97845.22
2019-04-29T11:21:34.977Z,97852.27
2019-04-29T11:24:15.663Z,97854.66
2019-04-29T11:26:54.362Z,97856.64
2019-04-29T11:29:29.191Z,97852.27
2019-04-29T11:32:04.811Z,97855.59
2019-04-29T11:35:00.057Z,97852.37
2019-04-29T11:37:34.203Z,97853.95
2019-04-29T11:40:09.448Z,97852.08
2019-04-29T11:42:43.281Z,97851.44
2019-04-29T11:45:17.118Z,97849.56
2019-04-29T11:47:51.272Z,97845.34
2019-04-29T11:50:31.685Z,97846.46
2019-04-29T11:53:05.965Z,97853.72
2019-04-29T11:55:42.717Z,97847.51
2019-04-29T11:58:28.521Z,97853.20
2019-04-29T12:01:10.373Z,97854.06
2019-04-29T12:03:44.259Z,97853.20
2019-04-29T12:06:20.821Z,97855.41
2019-04-29T12:08:55.129Z,97857.25
2019-04-29T12:11:35.829Z,97850.84
2019-04-29T12:14:26.285Z,97858.10
2019-04-29T12:17:21.903Z,97859.64
2019-04-29T12:19:58.714Z,97866.90
2019-04-29T12:22:33.032Z,97864.84
2019-04-29T12:25:07.209Z,97862.34
2019-04-29T12:27:40.908Z,97860.69
2019-04-29T12:30:16.395Z,97860.69
2019-04-29T12:33:18.329Z,97864.39
2019-04-29T12:35:58.689Z,97861.51
2019-04-29T12:38:51.088Z,97857.25
2019-04-29T12:41:49.211Z,97859.45
2019-04-29T12:44:34.740Z,97856.42
2019-04-29T12:47:10.361Z,97858.17
2019-04-29T12:49:46.443Z,97852.27
2019-04-29T12:52:19.756Z,97856.64
2019-04-29T12:54:53.414Z,97855.59
2019-04-29T12:57:27.822Z,97855.90
2019-04-29T13:00:01.577Z,97853.02
2019-04-29T13:03:13.268Z,97853.84
2019-04-29T13:06:11.948Z,97853.84
2019-04-29T13:08:48.579Z,97852.19
2019-04-29T13:11:35.967Z,97850.02
2019-04-29T13:14:01.841Z,97849.68
2019-04-29T13:16:55.801Z,97840.77
2019-04-29T13:20:01.572Z,97849.68
2019-04-29T13:22:28.967Z,97837.88
2019-04-29T13:25:02.686Z,97840.06
2019-04-29T13:27:36.495Z,97834.14
2019-04-29T13:30:14.996Z,97833.95
2019-04-29T13:32:46.895Z,97834.45
2019-04-29T13:35:20.803Z,97840.47
2019-04-29T13:37:54.701Z,97837.55
2019-04-29T13:40:28.372Z,97834.74
2019-04-29T13:43:02.093Z,97830.29
2019-04-29T13:45:42.955Z,97831.15
2019-04-29T13:48:30.476Z,97834.14
2019-04-29T13:51:11.804Z,97832.61
2019-04-29T13:53:45.551Z,97839.65
2019-04-29T13:56:35.000Z,97842.16
2019-04-29T13:58:57.894Z,97838.11
2019-04-29T14:01:59.982Z,97835.42
2019-04-29T14:04:27.924Z,97833.55
2019-04-29T14:07:01.914Z,97835.42
2019-04-29T14:09:39.299Z,97833.02
2019-04-29T14:12:46.753Z,97833.55
2019-04-29T14:14:46.446Z,97828.68
2019-04-29T14:17:26.647Z,97826.28
2019-04-29T14:19:57.086Z,97828.98
2019-04-29T14:22:31.121Z,97826.06
2019-04-29T14:25:05.247Z,97827.55
2019-04-29T14:27:39.029Z,97829.95
2019-04-29T14:30:20.594Z,97827.37
2019-04-29T14:32:56.714Z,97830.06
2019-04-29T14:35:36.496Z,97826.32
2019-04-29T14:38:10.570Z,97826.20
2019-04-29T14:40:44.829Z,97830.33
2019-04-29T14:43:37.305Z,97828.68
2019-04-29T14:46:28.461Z,97836.95
2019-04-29T14:49:06.387Z,97831.27
2019-04-29T14:51:40.277Z,97832.91
2019-04-29T14:54:14.238Z,97832.39
2019-04-29T14:56:48.010Z,97827.70
2019-04-29T14:59:21.942Z,97827.41
2019-04-29T15:02:03.873Z,97826.88
2019-04-29T15:04:42.096Z,97829.28
2019-04-29T15:07:16.077Z,97823.36
2019-04-29T15:09:58.220Z,97827.10
2019-04-29T15:13:19.343Z,97830.63
2019-04-29T15:16:04.863Z,97831.97
2019-04-29T15:18:49.026Z,97827.59
2019-04-29T15:21:56.287Z,97826.25
2019-04-29T15:24:32.399Z,97820.86
2019-04-29T15:27:05.923Z,97823.06
2019-04-29T15:29:41.709Z,97819.02
2019-04-29T15:32:17.907Z,97819.51
2019-04-29T15:34:51.092Z,97813.81
2019-04-29T15:37:24.930Z,97811.42
2019-04-29T15:39:58.934Z,97809.47
2019-04-29T15:42:33.053Z,97802.73
2019-04-29T15:45:07.305Z,97802.40
2019-04-29T15:47:41.548Z,97804.27
2019-04-29T15:50:19.162Z,97799.92
2019-04-29T15:52:54.011Z,97804.79
2019-04-29T15:55:28.094Z,97799.09
2019-04-29T15:58:02.803Z,97799.92
2019-04-29T16:00:39.760Z,97795.05
2019-04-29T16:03:16.880Z,97799.40
2019-04-29T16:06:20.747Z,97793.48
2019-04-29T16:08:52.699Z,97797.01
2019-04-29T16:11:44.028Z,97798.69
2019-04-29T16:14:21.619Z,97807.38
2019-04-29T16:16:55.300Z,97810.08
2019-04-29T16:19:29.531Z,97811.75
2019-04-29T16:22:03.336Z,97808.72
2019-04-29T16:24:38.237Z,97811.75
2019-04-29T16:27:12.957Z,97808.23
2019-04-29T16:29:51.612Z,97811.42
2019-04-29T16:32:31.262Z,97799.81
2019-04-29T16:35:05.185Z,97800.75
2019-04-29T16:37:39.032Z,97801.61
2019-04-29T16:40:12.799Z,97802.10
2019-04-29T16:43:05.465Z,97794.23
2019-04-29T16:46:13.063Z,97797.45
2019-04-29T16:48:47.021Z,97794.95
2019-04-29T16:51:20.823Z,97799.10
2019-04-29T16:53:54.920Z,97798.80
2019-04-29T16:56:28.636Z,97799.92
2019-04-29T16:59:09.267Z,97800.27
2019-04-29T17:01:37.686Z,97795.36
2019-04-29T17:04:11.524Z,97800.27
2019-04-29T17:07:10.719Z,97796.22
2019-04-29T17:09:46.367Z,97792.66
2019-04-29T17:12:20.372Z,97790.83
2019-04-29T17:15:04.035Z,97798.91
2019-04-29T17:17:29.773Z,97801.61
2019-04-29T17:20:03.646Z,97802.95
2019-04-29T17:22:43.156Z,97803.97
2019-04-29T17:25:14.320Z,97802.62
2019-04-29T17:28:11.858Z,97801.27
2019-04-29T17:31:14.094Z,97812.06
2019-04-29T17:33:52.272Z,97811.53
2019-04-29T17:36:26.934Z,97805.31
2019-04-29T17:39:02.181Z,97811.23
2019-04-29T17:41:36.064Z,97811.53
2019-04-29T17:44:20.473Z,97806.67
2019-04-29T17:47:13.337Z,97810.19
2019-04-29T17:50:02.005Z,97819.43
2019-04-29T17:52:37.208Z,97813.41
2019-04-29T17:55:38.731Z,97814.75
2019-04-29T17:58:13.127Z,97817.97
2019-04-29T18:01:00.773Z,97817.97
2019-04-29T18:03:55.849Z,97830.63
2019-04-29T18:06:37.217Z,97824.41
2019-04-29T18:09:29.729Z,97823.55
2019-04-29T18:12:09.322Z,97829.47
2019-04-29T18:14:44.669Z,97821.72
2019-04-29T18:17:26.913Z,97825.94
2019-04-29T18:20:29.759Z,97834.03
2019-04-29T18:23:19.000Z,97825.12
2019-04-29T18:26:04.882Z,97828.12
2019-04-29T18:28:40.321Z,97824.59
2019-04-29T18:31:17.095Z,97829.05
2019-04-29T18:33:50.921Z,97825.83
2019-04-29T18:36:26.637Z,97821.08
2019-04-29T18:39:00.044Z,97823.55
2019-04-29T18:41:35.485Z,97822.95
2019-04-29T18:44:18.941Z,97826.13
2019-04-29T18:46:53.090Z,97822.95
2019-04-29T18:49:20.815Z,97821.91
2019-04-29T18:51:57.920Z,97818.57
2019-04-29T18:54:30.099Z,97818.91
2019-04-29T18:57:05.757Z,97824.90
2019-04-29T18:59:42.034Z,97828.64
2019-04-29T19:02:15.376Z,97835.30
2019-04-29T19:05:04.199Z,97834.86
2019-04-29T19:07:39.875Z,97839.42
2019-04-29T19:10:14.724Z,97838.71
2019-04-29T19:12:59.511Z,97839.53
2019-04-29T19:15:25.619Z,97844.41
2019-04-29T19:18:01.981Z,97851.14
2019-04-29T19:20:35.867Z,97848.97
2019-04-29T19:23:10.323Z,97850.31
2019-04-29T19:25:46.448Z,97856.23
2019-04-29T19:28:29.694Z,97856.75
2019-04-29T19:31:02.884Z,97864.84
2019-04-29T19:33:37.615Z,97867.02
2019-04-29T19:36:08.817Z,97863.98
2019-04-29T19:38:44.126Z,97862.34
2019-04-29T19:41:18.128Z,97862.14
2019-04-29T19:43:54.940Z,97861.63
2019-04-29T19:46:36.717Z,97856.23
2019-04-29T19:49:08.199Z,97863.27
2019-04-29T19:51:43.705Z,97857.88
2019-04-29T19:54:18.547Z,97855.71
2019-04-29T19:56:55.650Z,97845.45
2019-04-29T19:59:27.763Z,97844.29
2019-04-29T20:02:06.703Z,97846.46
2019-04-29T20:04:53.808Z,97834.03
2019-04-29T20:07:28.284Z,97836.73
2019-04-29T20:10:05.848Z,97833.20
2019-04-29T20:12:39.946Z,97829.69
2019-04-29T20:15:16.465Z,97832.98
2019-04-29T20:18:15.150Z,97827.81
2019-04-29T20:21:08.463Z,97828.12
2019-04-29T20:23:38.852Z,97820.55
2019-04-29T20:26:15.654Z,97818.38
2019-04-29T20:28:50.658Z,97823.25
2019-04-29T20:31:23.061Z,97820.03
2019-04-29T20:33:59.139Z,97807.38
2019-04-29T20:36:40.198Z,97813.10
2019-04-29T20:39:15.184Z,97812.47
2019-04-29T20:41:47.042Z,97808.72
2019-04-29T20:44:20.125Z,97804.50
2019-04-29T20:47:14.147Z,97811.42
2019-04-29T20:49:30.891Z,97805.16
2019-04-29T20:52:20.591Z,97803.52
2019-04-29T20:54:57.844Z,97796.18
2019-04-29T20:57:27.989Z,97801.38
2019-04-29T21:00:02.519Z,97802.62
2019-04-29T21:02:37.416Z,97797.04
2019-04-29T21:05:19.885Z,97802.62
2019-04-29T21:07:49.197Z,97796.41
2019-04-29T21:10:24.393Z,97789.86
2019-04-29T21:13:16.446Z,97799.63
2019-04-29T21:15:55.545Z,97795.88
2019-04-29T21:18:29.320Z,97797.04
2019-04-29T21:21:04.534Z,97793.00
2019-04-29T21:23:38.476Z,97791.23
2019-04-29T21:26:12.522Z,97793.94
2019-04-29T21:28:47.066Z,97790.60
2019-04-29T21:31:20.899Z,97791.43
2019-04-29T21:33:58.772Z,97784.28
2019-04-29T21:36:55.754Z,97788.55
2019-04-29T21:39:47.154Z,97793.11
2019-04-29T21:42:47.184Z,97793.11
2019-04-29T21:45:19.734Z,97793.63
2019-04-29T21:47:54.592Z,97786.37
2019-04-29T21:50:34.024Z,97789.67
2019-04-29T21:53:05.093Z,97789.06
2019-04-29T21:55:39.023Z,97789.06
2019-04-29T21:58:12.950Z,97794.76
2019-04-29T22:00:47.159Z,97794.23
2019-04-29T22:03:26.591Z,97790.56
2019-04-29T22:05:57.354Z,97789.67
2019-04-29T22:08:31.405Z,97789.37
2019-04-29T22:11:07.053Z,97791.77
2019-04-29T22:13:41.065Z,97794.76
2019-04-29T22:16:15.742Z,97795.06
2019-04-29T22:18:51.913Z,97793.25
2019-04-29T22:21:26.069Z,97797.30
2019-04-29T22:24:00.028Z,97797.76
2019-04-29T22:26:35.064Z,97791.23
2019-04-29T22:29:08.855Z,97789.67
2019-04-29T22:31:42.888Z,97783.97
2019-04-29T22:34:19.072Z,97782.63
2019-04-29T22:36:57.030Z,97774.68
2019-04-29T22:39:30.221Z,97761.36
2019-04-29T22:42:23.611Z,97756.86
2019-04-29T22:45:00.640Z,97768.98
2019-04-29T22:47:33.695Z,97767.50
2019-04-29T22:50:07.398Z,97767.50
2019-04-29T22:52:41.009Z,97761.59
2019-04-29T22:55:15.516Z,97757.02
2019-04-29T22:57:49.359Z,97758.89
2019-04-29T23:00:32.388Z,97752.34
2019-04-29T23:03:02.261Z,97746.45
2019-04-29T23:05:37.868Z,97745.11
2019-04-29T23:08:12.251Z,97745.94
2019-04-29T23:10:46.108Z,97738.86
2019-04-29T23:13:19.693Z,97744.25
2019-04-29T23:15:53.835Z,97738.04
2019-04-29T23:18:33.214Z,97741.56
2019-04-29T23:21:28.053Z,97733.47
2019-04-29T23:24:17.305Z,97736.17
2019-04-29T23:26:49.839Z,97742.91
2019-04-29T23:29:25.397Z,97737.84
2019-04-29T23:31:59.703Z,97740.55
2019-04-29T23:34:36.346Z,97733.17
2019-04-29T23:37:10.207Z,97734.22
2019-04-29T23:39:45.608Z,97734.70
2019-04-29T23:42:19.418Z,97724.97
2019-04-29T23:44:55.061Z,97729.84
2019-04-29T23:47:28.598Z,97725.80
2019-04-29T23:50:02.488Z,97717.71
2019-04-29T23:52:36.315Z,97721.75
2019-04-29T23:55:10.077Z,97717.52
2019-04-29T23:57:50.332Z,97718.87
